Time;durP1;ratioP1;P1;durP2;ratioP2;P2;SDS_P1;SDS_P2;PMS_P1;PMS_P2;Temp;Humidity;BMP_temperature;BMP_pressure;BME280_temperature;BME280_humidity;BME280_pressure;Samples;Min_cycle;Max_cycle;Signal;HPM_P1;HPM_P2
2022/01/22 00:00:10;;;;;;;;;;;3.70;99.90;;;;;;4984152;28;19926;-77
2022/01/22 00:02:37;;;;;;;;;;;3.70;99.90;;;;;;4980297;28;19965;-77
2022/01/22 00:05:06;;;;;;;;;;;3.70;99.90;;;;;;4984442;28;20360;-77
2022/01/22 00:07:32;;;;;;;;;;;3.80;99.90;;;;;;4982154;28;20373;-77
2022/01/22 00:10:04;;;;;;;;;;;3.80;99.90;;;;;;4980916;28;20335;-77
2022/01/22 00:15:08;;;;;;;;;;;3.80;99.90;;;;;;4979108;28;19922;-76
2022/01/22 00:17:35;;;;;;;;;;;3.70;99.90;;;;;;4980255;28;19932;-77
2022/01/22 00:20:03;;;;;;;;;;;3.70;99.90;;;;;;4985169;28;19921;-76
2022/01/22 00:22:32;;;;;;;;;;;3.70;99.90;;;;;;4982817;28;19926;-76
2022/01/22 00:25:01;;;;;;;;;;;3.70;99.90;;;;;;4985620;28;19923;-76
2022/01/22 00:27:28;;;;;;;;;;;3.70;99.90;;;;;;4983896;28;19921;-76
2022/01/22 00:29:55;;;;;;;;;;;3.70;99.90;;;;;;4981012;28;25105;-77
2022/01/22 00:32:22;;;;;;;;;;;3.70;99.90;;;;;;4982229;28;19922;-76
2022/01/22 00:34:49;;;;;;;;;;;3.70;99.90;;;;;;4984528;28;19928;-77
2022/01/22 00:37:15;;;;;;;;;;;3.60;99.90;;;;;;4982146;28;20008;-77
2022/01/22 00:39:42;;;;;;;;;;;3.60;99.90;;;;;;4981500;28;19929;-76
2022/01/22 00:42:12;;;;;;;;;;;3.70;99.90;;;;;;4983466;28;19948;-77
2022/01/22 00:44:40;;;;;;;;;;;3.60;99.90;;;;;;4983959;28;19928;-77
2022/01/22 00:47:07;;;;;;;;;;;3.70;99.90;;;;;;4983884;28;19933;-77
2022/01/22 00:49:34;;;;;;;;;;;3.60;99.90;;;;;;4984730;28;19926;-77
2022/01/22 00:52:01;;;;;;;;;;;3.60;99.90;;;;;;4977068;28;20956;-77
2022/01/22 00:54:27;;;;;;;;;;;3.60;99.90;;;;;;4983917;28;19925;-76
2022/01/22 00:56:54;;;;;;;;;;;3.60;99.90;;;;;;4979051;28;20587;-76
2022/01/22 00:59:21;;;;;;;;;;;3.60;99.90;;;;;;4981835;28;20336;-75
2022/01/22 01:01:48;;;;;;;;;;;3.70;99.90;;;;;;4983964;28;19926;-75
2022/01/22 01:04:15;;;;;;;;;;;3.70;99.90;;;;;;4984231;28;19921;-75
2022/01/22 01:06:41;;;;;;;;;;;3.70;99.90;;;;;;4977965;28;19921;-75
2022/01/22 01:09:09;;;;;;;;;;;3.80;99.90;;;;;;4983838;28;19969;-75
2022/01/22 01:11:41;;;;;;;;;;;3.80;99.90;;;;;;4984315;28;19928;-76
2022/01/22 01:14:10;;;;;;;;;;;3.90;99.90;;;;;;4974725;28;19926;-75
2022/01/22 01:35:20;;;;;;;;;;;3.90;99.90;;;;;;4983872;28;19930;-76
2022/01/22 01:37:47;;;;;;;;;;;3.90;99.90;;;;;;4980177;28;20089;-75
2022/01/22 01:40:18;;;;;;;;;;;3.90;99.90;;;;;;4982435;28;19939;-75
2022/01/22 01:42:58;;;;;;;;;;;3.90;99.90;;;;;;4980819;28;20024;-75
2022/01/22 01:45:25;;;;;;;;;;;3.90;99.90;;;;;;4984958;28;19957;-75
2022/01/22 01:47:56;;;;;;;;;;;3.90;99.90;;;;;;4982355;28;19928;-75
2022/01/22 01:50:23;;;;;;;;;;;3.90;99.90;;;;;;4971183;28;19926;-75
2022/01/22 01:53:05;;;;;;;;;;;3.90;99.90;;;;;;4986995;28;20448;-76
2022/01/22 01:56:03;;;;;;;;;;;3.80;99.90;;;;;;4983625;28;19921;-76
2022/01/22 01:58:21;;;;;;;;;;;3.90;99.90;;;;;;4975345;28;19933;-76
2022/01/22 02:00:49;;;;;;;;;;;3.80;99.90;;;;;;4986761;28;20462;-76
2022/01/22 02:03:16;;;;;;;;;;;3.80;99.90;;;;;;4985104;28;19925;-76
2022/01/22 02:05:42;;;;;;;;;;;3.80;99.90;;;;;;4986092;28;20449;-76
2022/01/22 02:08:09;;;;;;;;;;;3.80;99.90;;;;;;4984673;28;19925;-76
2022/01/22 02:10:42;;;;;;;;;;;3.80;99.90;;;;;;4983821;28;19928;-76
2022/01/22 02:24:23;;;;;;;;;;;3.80;99.90;;;;;;4984742;28;19929;-76
2022/01/22 02:26:50;;;;;;;;;;;3.80;99.90;;;;;;4983727;28;19940;-76
2022/01/22 02:29:17;;;;;;;;;;;3.80;99.90;;;;;;4984671;28;20000;-76
2022/01/22 02:31:59;;;;;;;;;;;3.80;99.90;;;;;;4983712;28;19925;-74
2022/01/22 02:34:38;;;;;;;;;;;3.70;99.90;;;;;;4986431;28;19921;-74
2022/01/22 02:37:11;;;;;;;;;;;3.80;99.90;;;;;;4979178;28;20329;-75
2022/01/22 02:39:58;;;;;;;;;;;3.70;99.90;;;;;;4983735;28;19921;-75
2022/01/22 02:42:31;;;;;;;;;;;3.70;99.90;;;;;;4984843;28;19925;-75
2022/01/22 02:44:58;;;;;;;;;;;3.80;99.90;;;;;;4986787;28;20299;-75
2022/01/22 02:47:25;;;;;;;;;;;3.80;99.90;;;;;;4976192;28;19926;-74
2022/01/22 02:49:51;;;;;;;;;;;3.80;99.90;;;;;;4983940;28;19925;-74
2022/01/22 02:52:19;;;;;;;;;;;3.70;99.90;;;;;;4985768;28;19944;-75
2022/01/22 02:54:46;;;;;;;;;;;3.70;99.90;;;;;;4981768;28;20375;-74
2022/01/22 02:57:13;;;;;;;;;;;3.80;99.90;;;;;;4982828;28;20280;-74
2022/01/22 02:59:40;;;;;;;;;;;3.80;99.90;;;;;;4986170;28;19921;-74
2022/01/22 03:02:08;;;;;;;;;;;3.80;99.90;;;;;;4985121;28;19926;-74
2022/01/22 03:04:35;;;;;;;;;;;3.80;99.90;;;;;;4983486;28;19929;-74
2022/01/22 03:07:02;;;;;;;;;;;3.80;99.90;;;;;;4984748;28;19960;-74
2022/01/22 03:09:31;;;;;;;;;;;3.80;99.90;;;;;;4971128;28;20524;-75
2022/01/22 03:28:01;;;;;;;;;;;3.80;99.90;;;;;;4963034;28;19926;-74
2022/01/22 03:30:28;;;;;;;;;;;3.80;99.90;;;;;;4965662;28;20016;-75
2022/01/22 03:32:55;;;;;;;;;;;3.80;99.90;;;;;;4965378;28;19922;-74
2022/01/22 03:37:51;;;;;;;;;;;3.80;99.90;;;;;;4961723;28;20343;-75
2022/01/22 03:40:21;;;;;;;;;;;3.80;99.90;;;;;;4962728;28;20328;-75
2022/01/22 03:42:47;;;;;;;;;;;3.80;99.90;;;;;;4964335;28;20337;-75
2022/01/22 03:45:14;;;;;;;;;;;3.80;99.90;;;;;;4963526;28;20352;-75
2022/01/22 03:47:41;;;;;;;;;;;3.80;99.90;;;;;;4976286;28;20421;-75
2022/01/22 03:50:09;;;;;;;;;;;3.80;99.90;;;;;;4985133;28;19926;-75
2022/01/22 03:52:36;;;;;;;;;;;3.80;99.90;;;;;;4974743;28;20296;-75
2022/01/22 03:55:03;;;;;;;;;;;3.80;99.90;;;;;;4984529;28;19922;-75
2022/01/22 03:57:29;;;;;;;;;;;3.80;99.90;;;;;;4982340;28;19932;-74
2022/01/22 03:59:56;;;;;;;;;;;3.80;99.90;;;;;;4985599;28;19932;-75
2022/01/22 04:05:04;;;;;;;;;;;3.90;99.90;;;;;;4981616;28;19921;-75
2022/01/22 04:10:14;;;;;;;;;;;3.90;99.90;;;;;;4972660;28;19943;-75
2022/01/22 04:13:00;;;;;;;;;;;3.90;99.90;;;;;;4978475;28;19921;-74
2022/01/22 04:15:29;;;;;;;;;;;3.90;99.90;;;;;;4977710;28;20016;-74
2022/01/22 04:28:38;;;;;;;;;;;3.80;99.90;;;;;;4984733;28;20004;-75
2022/01/22 04:31:05;;;;;;;;;;;3.80;99.90;;;;;;4983942;28;20016;-75
2022/01/22 04:33:32;;;;;;;;;;;3.90;99.90;;;;;;4983489;28;19925;-75
2022/01/22 04:35:58;;;;;;;;;;;3.90;99.90;;;;;;4983715;28;20249;-75
2022/01/22 04:38:25;;;;;;;;;;;3.90;99.90;;;;;;4984429;28;19922;-75
2022/01/22 04:40:52;;;;;;;;;;;3.90;99.90;;;;;;4981134;28;19930;-75
2022/01/22 04:43:19;;;;;;;;;;;3.90;99.90;;;;;;4983880;28;20371;-75
2022/01/22 04:46:07;;;;;;;;;;;3.90;99.90;;;;;;4985068;28;19987;-75
2022/01/22 04:56:40;;;;;;;;;;;3.90;99.90;;;;;;4984000;28;19922;-75
2022/01/22 04:59:06;;;;;;;;;;;3.90;99.90;;;;;;4982626;28;20265;-75
2022/01/22 05:01:33;;;;;;;;;;;3.90;99.90;;;;;;4983111;28;19929;-75
2022/01/22 05:04:00;;;;;;;;;;;3.90;99.90;;;;;;4978350;28;20576;-75
2022/01/22 05:06:29;;;;;;;;;;;3.80;99.90;;;;;;4981907;28;19957;-75
2022/01/22 05:08:57;;;;;;;;;;;3.90;99.90;;;;;;5030034;28;20316;-75
2022/01/22 05:11:24;;;;;;;;;;;3.90;99.90;;;;;;4978009;28;20510;-75
2022/01/22 05:13:51;;;;;;;;;;;3.80;99.90;;;;;;4970102;28;19922;-75
2022/01/22 05:16:18;;;;;;;;;;;3.80;99.90;;;;;;4981794;28;19928;-75
2022/01/22 05:18:54;;;;;;;;;;;3.80;99.90;;;;;;4981561;28;19925;-75
2022/01/22 05:21:22;;;;;;;;;;;3.80;99.90;;;;;;4957864;28;20008;-75
2022/01/22 05:23:50;;;;;;;;;;;3.80;99.90;;;;;;4982521;28;19965;-75
2022/01/22 05:29:27;;;;;;;;;;;3.80;99.90;;;;;;4985425;28;20021;-75
2022/01/22 05:37:25;;;;;;;;;;;3.70;99.90;;;;;;4977701;28;19970;-75
2022/01/22 05:50:23;;;;;;;;;;;3.80;99.90;;;;;;4975294;28;19988;-75
2022/01/22 05:52:57;;;;;;;;;;;3.80;99.90;;;;;;4974950;28;19930;-75
2022/01/22 06:00:38;;;;;;;;;;;3.80;99.90;;;;;;4987401;28;19922;-75
2022/01/22 06:03:05;;;;;;;;;;;3.80;99.90;;;;;;4984935;28;20457;-75
2022/01/22 06:05:31;;;;;;;;;;;3.80;99.90;;;;;;4984456;28;20299;-75
2022/01/22 06:07:58;;;;;;;;;;;3.80;99.90;;;;;;4984540;28;19929;-75
2022/01/22 06:10:28;;;;;;;;;;;3.80;99.90;;;;;;4985621;28;20313;-75
2022/01/22 06:13:13;;;;;;;;;;;3.80;99.90;;;;;;4982640;28;19944;-75
2022/01/22 06:15:40;;;;;;;;;;;3.90;99.90;;;;;;4972146;28;19933;-75
2022/01/22 06:18:07;;;;;;;;;;;3.90;99.90;;;;;;4984740;28;19926;-75
2022/01/22 06:20:33;;;;;;;;;;;3.90;99.90;;;;;;4984882;28;19930;-75
2022/01/22 06:23:01;;;;;;;;;;;3.90;99.90;;;;;;4987042;28;20441;-75
2022/01/22 06:25:28;;;;;;;;;;;3.90;99.90;;;;;;4986477;28;20303;-75
2022/01/22 06:27:55;;;;;;;;;;;3.90;99.90;;;;;;4967999;28;19925;-75
2022/01/22 06:30:22;;;;;;;;;;;3.90;99.90;;;;;;4981062;28;19932;-76
2022/01/22 06:32:54;;;;;;;;;;;3.90;99.90;;;;;;4979179;28;20432;-75
2022/01/22 06:35:20;;;;;;;;;;;4.00;99.90;;;;;;4972096;28;19922;-75
2022/01/22 06:37:47;;;;;;;;;;;3.90;99.90;;;;;;4970352;28;19944;-75
2022/01/22 06:42:44;;;;;;;;;;;3.90;99.90;;;;;;4982851;28;19925;-75
2022/01/22 06:45:15;;;;;;;;;;;3.90;99.90;;;;;;4983690;28;20004;-76
2022/01/22 06:47:42;;;;;;;;;;;3.90;99.90;;;;;;4979107;28;19928;-75
2022/01/22 06:50:09;;;;;;;;;;;4.00;99.90;;;;;;4984254;28;19925;-76
2022/01/22 06:52:37;;;;;;;;;;;4.00;99.90;;;;;;4982897;28;19944;-76
2022/01/22 06:55:04;;;;;;;;;;;4.00;99.90;;;;;;4979708;28;19928;-75
2022/01/22 06:57:31;;;;;;;;;;;4.00;99.90;;;;;;4984782;28;19922;-75
2022/01/22 06:59:58;;;;;;;;;;;4.00;99.90;;;;;;4984548;28;20392;-75
2022/01/22 07:02:25;;;;;;;;;;;3.90;99.90;;;;;;4983951;28;19922;-77
2022/01/22 07:04:52;;;;;;;;;;;4.00;99.90;;;;;;4986593;28;19922;-76
2022/01/22 07:07:18;;;;;;;;;;;4.00;99.90;;;;;;4970116;28;20400;-76
2022/01/22 07:09:45;;;;;;;;;;;3.90;99.90;;;;;;4986224;28;19929;-76
2022/01/22 07:12:12;;;;;;;;;;;3.90;99.90;;;;;;4983539;28;19930;-76
2022/01/22 07:14:39;;;;;;;;;;;3.90;99.90;;;;;;4981485;28;19921;-76
2022/01/22 07:17:07;;;;;;;;;;;3.90;99.90;;;;;;4979566;28;19926;-77
2022/01/22 07:19:39;;;;;;;;;;;3.90;99.90;;;;;;4943800;28;19922;-76
2022/01/22 07:22:20;;;;;;;;;;;3.90;99.90;;;;;;4975278;28;19940;-76
2022/01/22 07:24:46;;;;;;;;;;;3.90;99.90;;;;;;4972003;28;19922;-76
2022/01/22 07:27:13;;;;;;;;;;;3.90;99.90;;;;;;4981220;28;19921;-76
2022/01/22 07:29:42;;;;;;;;;;;3.90;99.90;;;;;;4982125;28;20288;-76
2022/01/22 07:32:13;;;;;;;;;;;4.00;99.90;;;;;;4980249;28;20009;-76
2022/01/22 07:34:40;;;;;;;;;;;4.00;99.90;;;;;;4969871;28;19922;-76
2022/01/22 07:37:07;;;;;;;;;;;4.00;99.90;;;;;;4971579;28;19941;-76
2022/01/22 07:39:33;;;;;;;;;;;4.10;99.90;;;;;;4979184;28;19925;-76
2022/01/22 07:42:00;;;;;;;;;;;4.10;99.90;;;;;;4971394;28;19933;-76
2022/01/22 07:44:26;;;;;;;;;;;4.10;99.90;;;;;;4981804;28;19963;-76
2022/01/22 07:46:54;;;;;;;;;;;4.10;99.90;;;;;;4978036;28;19961;-76
2022/01/22 07:49:20;;;;;;;;;;;4.00;99.90;;;;;;4975028;28;19928;-76
2022/01/22 07:51:47;;;;;;;;;;;4.00;99.90;;;;;;4981253;28;19928;-76
2022/01/22 07:54:14;;;;;;;;;;;4.00;99.90;;;;;;4982488;28;19932;-77
2022/01/22 07:56:41;;;;;;;;;;;4.00;99.90;;;;;;4972690;28;19937;-76
2022/01/22 07:59:08;;;;;;;;;;;4.10;99.90;;;;;;4982864;28;19921;-76
2022/01/22 08:01:34;;;;;;;;;;;4.00;99.90;;;;;;4976391;28;19933;-76
2022/01/22 08:04:01;;;;;;;;;;;4.00;99.90;;;;;;4981842;28;20273;-76
2022/01/22 08:06:28;;;;;;;;;;;4.10;99.90;;;;;;4980712;28;19928;-76
2022/01/22 08:08:54;;;;;;;;;;;4.10;99.90;;;;;;4968941;28;19922;-76
2022/01/22 08:11:21;;;;;;;;;;;4.10;99.90;;;;;;4980815;28;19922;-76
2022/01/22 08:13:48;;;;;;;;;;;4.10;99.90;;;;;;4973719;28;20005;-77
2022/01/22 08:16:14;;;;;;;;;;;4.10;99.90;;;;;;4971606;28;19929;-76
2022/01/22 08:18:41;;;;;;;;;;;4.10;99.90;;;;;;4977947;28;19971;-76
2022/01/22 08:21:08;;;;;;;;;;;4.10;99.90;;;;;;4971832;28;20571;-76
2022/01/22 08:23:34;;;;;;;;;;;4.10;99.90;;;;;;4978455;28;19935;-77
2022/01/22 08:26:05;;;;;;;;;;;4.10;99.90;;;;;;4974466;28;20463;-76
2022/01/22 08:31:24;;;;;;;;;;;4.10;99.90;;;;;;4976876;28;20020;-77
2022/01/22 08:36:42;;;;;;;;;;;4.10;99.90;;;;;;4981128;28;21252;-77
2022/01/22 08:39:09;;;;;;;;;;;4.20;99.90;;;;;;4979706;28;20028;-77
2022/01/22 08:45:05;;;;;;;;;;;4.20;99.90;;;;;;4967684;28;19925;-76
2022/01/22 08:47:31;;;;;;;;;;;4.20;99.90;;;;;;4978547;28;19956;-76
2022/01/22 08:49:58;;;;;;;;;;;4.20;99.90;;;;;;4978231;28;20129;-76
2022/01/22 08:52:29;;;;;;;;;;;4.30;99.90;;;;;;4969089;28;20380;-77
2022/01/22 08:54:56;;;;;;;;;;;4.30;99.90;;;;;;4972345;28;19929;-76
2022/01/22 08:57:24;;;;;;;;;;;4.40;99.90;;;;;;4972640;28;20163;-76
2022/01/22 08:59:51;;;;;;;;;;;4.40;99.90;;;;;;4979154;28;20373;-76
2022/01/22 09:02:18;;;;;;;;;;;4.40;99.90;;;;;;4976997;28;19928;-76
2022/01/22 09:04:45;;;;;;;;;;;4.40;99.90;;;;;;4974089;28;19949;-77
2022/01/22 09:07:12;;;;;;;;;;;4.40;99.90;;;;;;4979241;28;19922;-77
2022/01/22 09:09:40;;;;;;;;;;;4.40;99.90;;;;;;4937324;28;19929;-76
2022/01/22 09:12:08;;;;;;;;;;;4.40;99.90;;;;;;4972540;28;19926;-76
2022/01/22 09:14:36;;;;;;;;;;;4.40;99.90;;;;;;4984894;28;19927;-76
2022/01/22 09:17:03;;;;;;;;;;;4.50;99.90;;;;;;4967978;28;20344;-76
2022/01/22 09:19:34;;;;;;;;;;;4.50;99.90;;;;;;4978119;28;20017;-76
2022/01/22 09:22:02;;;;;;;;;;;4.50;99.90;;;;;;4968427;28;19928;-76
2022/01/22 09:24:29;;;;;;;;;;;4.60;99.90;;;;;;4970086;28;19953;-76
2022/01/22 09:26:58;;;;;;;;;;;4.60;99.90;;;;;;4976577;28;19926;-76
2022/01/22 09:29:25;;;;;;;;;;;4.50;99.90;;;;;;4971920;28;19922;-76
2022/01/22 09:31:52;;;;;;;;;;;4.60;99.90;;;;;;4976825;28;20364;-76
2022/01/22 09:34:19;;;;;;;;;;;4.60;99.90;;;;;;4972250;28;19928;-75
2022/01/22 09:36:46;;;;;;;;;;;4.80;99.90;;;;;;4977828;28;19921;-75
2022/01/22 09:39:13;;;;;;;;;;;4.90;99.90;;;;;;4977572;28;19926;-75
2022/01/22 09:41:40;;;;;;;;;;;4.90;99.90;;;;;;4969971;28;20016;-75
2022/01/22 09:44:26;;;;;;;;;;;5.00;99.90;;;;;;4974145;28;19929;-76
2022/01/22 09:46:53;;;;;;;;;;;5.10;99.90;;;;;;4974393;28;19930;-75
2022/01/22 09:49:20;;;;;;;;;;;5.20;99.90;;;;;;4977788;28;19922;-76
2022/01/22 09:51:46;;;;;;;;;;;5.30;99.90;;;;;;4981420;28;19922;-75
2022/01/22 09:54:13;;;;;;;;;;;5.40;99.90;;;;;;4978898;28;19926;-76
2022/01/22 09:56:41;;;;;;;;;;;5.50;99.90;;;;;;4982844;28;19922;-76
2022/01/22 09:59:12;;;;;;;;;;;5.60;99.90;;;;;;4980358;28;20004;-78
2022/01/22 10:01:40;;;;;;;;;;;5.60;99.90;;;;;;4986211;28;19930;-75
2022/01/22 10:04:07;;;;;;;;;;;5.70;99.90;;;;;;4976440;28;20000;-77
2022/01/22 10:06:47;;;;;;;;;;;5.70;99.90;;;;;;4979837;28;20179;-76
2022/01/22 10:09:24;;;;;;;;;;;5.80;99.90;;;;;;4977216;28;19932;-75
2022/01/22 10:12:17;;;;;;;;;;;5.80;99.90;;;;;;4972152;28;20316;-75
2022/01/22 10:15:02;;;;;;;;;;;5.80;99.90;;;;;;4972483;28;19926;-75
2022/01/22 10:17:42;;;;;;;;;;;5.90;99.90;;;;;;4975184;28;19921;-75
2022/01/22 10:20:21;;;;;;;;;;;5.90;99.90;;;;;;4978509;28;20373;-76
2022/01/22 10:22:59;;;;;;;;;;;5.80;99.90;;;;;;4972753;28;19984;-76
2022/01/22 10:25:31;;;;;;;;;;;5.80;99.90;;;;;;4980936;28;19922;-75
2022/01/22 10:27:59;;;;;;;;;;;5.70;99.90;;;;;;4981784;28;20197;-75
2022/01/22 10:30:41;;;;;;;;;;;5.70;99.90;;;;;;4986750;28;20045;-75
2022/01/22 10:33:28;;;;;;;;;;;5.70;99.90;;;;;;4981155;28;20387;-75
2022/01/22 10:36:10;;;;;;;;;;;5.80;99.90;;;;;;4987372;28;19956;-75
2022/01/22 10:38:48;;;;;;;;;;;5.80;99.90;;;;;;4957057;28;19921;-75
2022/01/22 10:41:16;;;;;;;;;;;5.90;99.90;;;;;;4979879;28;20292;-75
2022/01/22 10:43:52;;;;;;;;;;;6.00;99.90;;;;;;4977471;28;19926;-75
2022/01/22 10:46:22;;;;;;;;;;;6.10;99.90;;;;;;5011925;28;20276;-75
2022/01/22 10:49:08;;;;;;;;;;;6.20;99.90;;;;;;4970643;28;19930;-75
2022/01/22 10:51:44;;;;;;;;;;;6.20;99.90;;;;;;4977727;28;19922;-78
2022/01/22 10:54:11;;;;;;;;;;;6.20;99.90;;;;;;4979750;28;20009;-76
2022/01/22 10:56:40;;;;;;;;;;;6.20;99.90;;;;;;4976320;28;19973;-76
2022/01/22 10:59:10;;;;;;;;;;;6.20;99.90;;;;;;4980684;28;19921;-76
2022/01/22 11:01:46;;;;;;;;;;;6.10;99.90;;;;;;4978222;28;19928;-76
2022/01/22 11:04:15;;;;;;;;;;;6.10;99.90;;;;;;4976298;28;20662;-76
2022/01/22 11:07:01;;;;;;;;;;;6.10;99.90;;;;;;4979957;28;20375;-76
2022/01/22 11:09:48;;;;;;;;;;;6.00;99.90;;;;;;4973777;28;19922;-76
2022/01/22 11:12:16;;;;;;;;;;;6.00;99.90;;;;;;4975962;28;19952;-76
2022/01/22 11:14:43;;;;;;;;;;;6.00;99.90;;;;;;4968705;28;19929;-76
2022/01/22 11:17:10;;;;;;;;;;;6.00;99.90;;;;;;4974139;28;20384;-76
2022/01/22 11:19:38;;;;;;;;;;;6.00;99.90;;;;;;4943492;28;20016;-76
2022/01/22 11:22:05;;;;;;;;;;;6.00;99.90;;;;;;4977241;28;20304;-76
2022/01/22 11:24:33;;;;;;;;;;;6.10;99.90;;;;;;4973113;28;20368;-76
2022/01/22 11:27:01;;;;;;;;;;;6.20;99.90;;;;;;4976926;28;19929;-76
2022/01/22 11:29:29;;;;;;;;;;;6.30;99.90;;;;;;4973793;28;19952;-76
2022/01/22 11:31:58;;;;;;;;;;;6.30;99.90;;;;;;4972006;28;20423;-76
2022/01/22 11:34:27;;;;;;;;;;;6.30;99.90;;;;;;4978928;28;19959;-76
2022/01/22 11:37:12;;;;;;;;;;;6.30;99.90;;;;;;4976850;28;19929;-76
2022/01/22 11:39:39;;;;;;;;;;;6.20;99.90;;;;;;4972683;28;19921;-76
2022/01/22 11:42:06;;;;;;;;;;;6.20;99.90;;;;;;4969859;28;19922;-76
2022/01/22 11:45:02;;;;;;;;;;;6.20;99.90;;;;;;4948989;28;19930;-77
2022/01/22 11:47:28;;;;;;;;;;;6.20;99.90;;;;;;4972887;28;19926;-76
2022/01/22 11:50:15;;;;;;;;;;;6.20;99.90;;;;;;4983653;28;19922;-75
2022/01/22 11:52:44;;;;;;;;;;;6.20;99.90;;;;;;4980346;28;19947;-77
2022/01/22 11:55:12;;;;;;;;;;;6.20;99.90;;;;;;4983239;28;20409;-77
2022/01/22 11:57:39;;;;;;;;;;;6.20;99.90;;;;;;4984328;28;19928;-76
2022/01/22 12:00:11;;;;;;;;;;;6.20;99.90;;;;;;4983137;28;19922;-76
2022/01/22 12:02:38;;;;;;;;;;;6.20;99.90;;;;;;4952345;28;20388;-76
2022/01/22 12:05:08;;;;;;;;;;;6.10;99.90;;;;;;4992608;28;19944;-76
2022/01/22 12:07:38;;;;;;;;;;;6.20;99.90;;;;;;4986710;28;19975;-76
2022/01/22 12:10:20;;;;;;;;;;;6.20;99.90;;;;;;4975659;28;19926;-76
2022/01/22 12:15:35;;;;;;;;;;;6.30;99.90;;;;;;4969019;28;19967;-76
2022/01/22 12:18:04;;;;;;;;;;;6.30;99.90;;;;;;4979935;28;19933;-76
2022/01/22 12:23:04;;;;;;;;;;;6.20;99.90;;;;;;4982050;28;19926;-76
2022/01/22 12:25:31;;;;;;;;;;;6.20;99.90;;;;;;4984414;28;20372;-76
2022/01/22 12:27:58;;;;;;;;;;;6.10;99.90;;;;;;4986554;28;19926;-76
2022/01/22 12:30:43;;;;;;;;;;;6.10;99.90;;;;;;4983348;28;20176;-76
2022/01/22 12:33:15;;;;;;;;;;;6.10;99.90;;;;;;4983951;28;19921;-76
2022/01/22 12:35:46;;;;;;;;;;;6.10;99.90;;;;;;4974987;28;19925;-76
2022/01/22 12:38:31;;;;;;;;;;;6.10;99.90;;;;;;4989442;28;19925;-76
2022/01/22 12:44:05;;;;;;;;;;;6.10;99.90;;;;;;4970153;28;20024;-76
2022/01/22 12:46:48;;;;;;;;;;;6.20;99.90;;;;;;4972113;28;20395;-76
2022/01/22 12:49:15;;;;;;;;;;;6.20;99.90;;;;;;4978370;28;19932;-76
2022/01/22 12:51:41;;;;;;;;;;;6.20;99.90;;;;;;4978920;28;20284;-76
2022/01/22 12:54:08;;;;;;;;;;;6.10;99.90;;;;;;4979753;28;20403;-76
2022/01/22 12:57:04;;;;;;;;;;;6.10;99.90;;;;;;4967183;28;19933;-76
2022/01/22 12:59:34;;;;;;;;;;;6.10;99.90;;;;;;4967603;28;19922;-76
2022/01/22 13:02:01;;;;;;;;;;;6.10;99.90;;;;;;4975846;28;19922;-77
2022/01/22 13:04:28;;;;;;;;;;;6.10;99.90;;;;;;4970114;28;22158;-77
2022/01/22 13:06:54;;;;;;;;;;;6.10;99.90;;;;;;4979027;28;19925;-76
2022/01/22 13:09:21;;;;;;;;;;;6.10;99.90;;;;;;4970834;28;19969;-76
2022/01/22 13:11:52;;;;;;;;;;;6.10;99.90;;;;;;4969351;28;19922;-77
2022/01/22 13:14:28;;;;;;;;;;;6.10;99.90;;;;;;4986343;28;19922;-76
2022/01/22 13:16:56;;;;;;;;;;;6.10;99.90;;;;;;4966325;28;19926;-77
2022/01/22 13:19:23;;;;;;;;;;;6.10;99.90;;;;;;4980794;28;20012;-77
2022/01/22 13:21:50;;;;;;;;;;;6.10;99.90;;;;;;4978654;28;19922;-76
2022/01/22 13:24:16;;;;;;;;;;;6.10;99.90;;;;;;4974654;28;19922;-76
2022/01/22 13:26:57;;;;;;;;;;;6.10;99.90;;;;;;4989983;28;19928;-76
2022/01/22 13:29:37;;;;;;;;;;;6.10;99.90;;;;;;4968090;28;19960;-76
2022/01/22 13:32:11;;;;;;;;;;;6.10;99.90;;;;;;4969279;28;19929;-76
2022/01/22 13:34:54;;;;;;;;;;;6.20;99.90;;;;;;4982483;28;20296;-77
2022/01/22 13:47:47;;;;;;;;;;;6.20;99.90;;;;;;4988856;28;19921;-76
2022/01/22 13:50:14;;;;;;;;;;;6.20;99.90;;;;;;4979798;28;19921;-77
2022/01/22 13:52:43;;;;;;;;;;;6.10;99.90;;;;;;5017799;28;19921;-77
2022/01/22 13:55:11;;;;;;;;;;;6.20;99.90;;;;;;4980940;28;19922;-76
2022/01/22 13:57:38;;;;;;;;;;;6.10;99.90;;;;;;4990001;28;19928;-77
2022/01/22 14:00:15;;;;;;;;;;;6.10;99.90;;;;;;4987380;28;19926;-77
2022/01/22 14:03:18;;;;;;;;;;;6.10;99.90;;;;;;4986047;28;19926;-74
2022/01/22 14:05:52;;;;;;;;;;;6.10;99.90;;;;;;4984617;28;19930;-74
2022/01/22 14:08:29;;;;;;;;;;;6.10;99.90;;;;;;4980677;28;19937;-75
2022/01/22 14:11:23;;;;;;;;;;;6.10;99.90;;;;;;4974278;28;20303;-76
2022/01/22 14:14:11;;;;;;;;;;;6.10;99.90;;;;;;4985764;28;20086;-75
2022/01/22 14:16:44;;;;;;;;;;;6.10;99.90;;;;;;4981660;28;20431;-75
2022/01/22 14:19:11;;;;;;;;;;;6.10;99.90;;;;;;4979951;28;19928;-75
2022/01/22 14:21:37;;;;;;;;;;;6.10;99.90;;;;;;4980636;28;19941;-76
2022/01/22 14:24:08;;;;;;;;;;;6.00;99.90;;;;;;4984223;28;19922;-76
2022/01/22 14:26:35;;;;;;;;;;;6.00;99.90;;;;;;4989791;28;19930;-75
2022/01/22 14:29:08;;;;;;;;;;;6.00;99.90;;;;;;4983847;28;19956;-76
2022/01/22 14:31:35;;;;;;;;;;;6.00;99.90;;;;;;4986120;28;19968;-75
2022/01/22 14:34:04;;;;;;;;;;;6.00;99.90;;;;;;4980880;28;19945;-75
2022/01/22 14:36:49;;;;;;;;;;;5.90;99.90;;;;;;4972008;28;20399;-75
2022/01/22 14:44:44;;;;;;;;;;;5.80;99.90;;;;;;4969078;28;20012;-76
2022/01/22 14:47:12;;;;;;;;;;;5.70;99.90;;;;;;4965995;28;20009;-75
2022/01/22 14:49:46;;;;;;;;;;;5.70;99.90;;;;;;4980309;28;19928;-75
2022/01/22 14:52:14;;;;;;;;;;;5.70;99.90;;;;;;4972954;28;19922;-76
2022/01/22 14:54:43;;;;;;;;;;;5.70;99.90;;;;;;4971458;28;20012;-76
2022/01/22 14:57:10;;;;;;;;;;;5.80;99.90;;;;;;4975619;28;19922;-76
2022/01/22 14:59:38;;;;;;;;;;;5.70;99.90;;;;;;4978580;28;19929;-75
2022/01/22 15:02:05;;;;;;;;;;;5.80;99.90;;;;;;4982238;28;19926;-75
2022/01/22 15:04:33;;;;;;;;;;;5.80;99.90;;;;;;4976681;28;19922;-75
2022/01/22 15:07:01;;;;;;;;;;;5.70;99.90;;;;;;4975620;28;19929;-75
2022/01/22 15:09:29;;;;;;;;;;;5.80;99.90;;;;;;4981181;28;19929;-75
2022/01/22 15:11:57;;;;;;;;;;;5.70;99.90;;;;;;4980994;28;19957;-75
2022/01/22 15:14:26;;;;;;;;;;;5.70;99.90;;;;;;4981825;28;19929;-76
2022/01/22 15:19:35;;;;;;;;;;;5.50;99.90;;;;;;4976384;28;19944;-76
2022/01/22 15:22:02;;;;;;;;;;;5.60;99.90;;;;;;4975893;28;19938;-76
2022/01/22 15:24:29;;;;;;;;;;;5.60;99.90;;;;;;4981717;28;19928;-76
2022/01/22 15:26:56;;;;;;;;;;;5.60;99.90;;;;;;4975219;28;20280;-75
2022/01/22 15:29:26;;;;;;;;;;;5.60;99.90;;;;;;4979854;28;20346;-75
2022/01/22 15:34:55;;;;;;;;;;;5.50;99.90;;;;;;4970486;28;19930;-75
2022/01/22 15:37:22;;;;;;;;;;;5.50;99.90;;;;;;4969511;28;19928;-75
2022/01/22 15:39:49;;;;;;;;;;;5.50;99.90;;;;;;4976852;28;20020;-75
2022/01/22 15:42:16;;;;;;;;;;;5.50;99.90;;;;;;4986540;28;20394;-76
2022/01/22 15:44:43;;;;;;;;;;;5.50;99.90;;;;;;4981285;28;20008;-75
2022/01/22 15:47:10;;;;;;;;;;;5.50;99.90;;;;;;4972930;28;20315;-76
2022/01/22 15:49:40;;;;;;;;;;;5.50;99.90;;;;;;4972025;28;19941;-76
2022/01/22 15:52:06;;;;;;;;;;;5.40;99.90;;;;;;4972332;28;19932;-76
2022/01/22 15:54:33;;;;;;;;;;;5.50;99.90;;;;;;4934165;28;19925;-76
2022/01/22 15:57:00;;;;;;;;;;;5.50;99.90;;;;;;4971503;28;19922;-76
2022/01/22 15:59:26;;;;;;;;;;;5.40;99.90;;;;;;4983512;28;19922;-76
2022/01/22 16:01:53;;;;;;;;;;;5.40;99.90;;;;;;4984087;28;19928;-76
2022/01/22 16:04:20;;;;;;;;;;;5.40;99.90;;;;;;4980498;28;19922;-76
2022/01/22 16:09:14;;;;;;;;;;;5.30;99.90;;;;;;4984380;28;19929;-76
2022/01/22 16:12:01;;;;;;;;;;;5.30;99.90;;;;;;4980804;28;19922;-76
2022/01/22 16:14:47;;;;;;;;;;;5.30;99.90;;;;;;4971456;28;19976;-76
2022/01/22 16:17:17;;;;;;;;;;;5.30;99.90;;;;;;4979755;28;19925;-75
2022/01/22 16:19:44;;;;;;;;;;;5.30;99.90;;;;;;4972831;28;19926;-75
2022/01/22 16:22:11;;;;;;;;;;;5.30;99.90;;;;;;4981062;28;19922;-75
2022/01/22 16:24:37;;;;;;;;;;;5.30;99.90;;;;;;4982028;28;19922;-76
2022/01/22 16:27:04;;;;;;;;;;;5.30;99.90;;;;;;4982273;28;20339;-76
2022/01/22 16:29:32;;;;;;;;;;;5.30;99.90;;;;;;4972054;28;19922;-75
2022/01/22 16:31:59;;;;;;;;;;;5.20;99.90;;;;;;4980377;28;19922;-75
2022/01/22 16:34:26;;;;;;;;;;;5.20;99.90;;;;;;4979262;28;19926;-75
2022/01/22 16:36:52;;;;;;;;;;;5.20;99.90;;;;;;4981351;28;20426;-75
2022/01/22 16:39:19;;;;;;;;;;;5.20;99.90;;;;;;4982604;28;19929;-75
2022/01/22 16:41:47;;;;;;;;;;;5.20;99.90;;;;;;4981611;28;19937;-76
2022/01/22 16:44:31;;;;;;;;;;;5.20;99.90;;;;;;4978762;28;19952;-76
2022/01/22 16:55:11;;;;;;;;;;;5.50;99.90;;;;;;4984319;28;19928;-75
2022/01/22 16:57:42;;;;;;;;;;;5.50;99.90;;;;;;4976121;28;19922;-76
2022/01/22 17:00:14;;;;;;;;;;;5.40;99.90;;;;;;4982324;28;20308;-76
2022/01/22 17:02:45;;;;;;;;;;;5.50;99.90;;;;;;4973260;28;20157;-75
2022/01/22 17:05:12;;;;;;;;;;;5.40;99.90;;;;;;4979720;28;19932;-76
2022/01/22 17:07:54;;;;;;;;;;;5.40;99.90;;;;;;4980848;28;19921;-76
2022/01/22 17:10:56;;;;;;;;;;;5.40;99.90;;;;;;4980234;28;19953;-76
2022/01/22 17:16:07;;;;;;;;;;;5.30;99.90;;;;;;4978041;28;19925;-75
2022/01/22 17:18:34;;;;;;;;;;;5.40;99.90;;;;;;4982042;28;20385;-75
2022/01/22 17:21:00;;;;;;;;;;;5.40;99.90;;;;;;4977306;28;19930;-75